Time;durP1;ratioP1;P1;durP2;ratioP2;P2;SDS_P1;SDS_P2;PMS_P1;PMS_P2;Temp;Humidity;BMP_temperature;BMP_pressure;BME280_temperature;BME280_humidity;BME280_pressure;Samples;Min_cycle;Max_cycle;Signal;HPM_P1;HPM_P2
2022/04/02 00:00:20;;;;;;;8.57;5.90;;;5.70;99.90;;;;;;5050054;28;20233;-70
2022/04/02 00:02:47;;;;;;;7.83;5.30;;;5.80;99.90;;;;;;5050067;28;20643;-70
2022/04/02 00:05:14;;;;;;;8.73;5.03;;;5.80;99.90;;;;;;5050003;28;20240;-70
2022/04/02 00:07:41;;;;;;;8.17;5.17;;;5.80;99.90;;;;;;5050006;28;20247;-70
2022/04/02 00:10:09;;;;;;;7.80;5.27;;;5.80;99.90;;;;;;5049441;28;20622;-70
2022/04/02 00:12:36;;;;;;;8.57;5.37;;;5.90;99.90;;;;;;5049814;28;20732;-70
2022/04/02 00:15:03;;;;;;;9.03;5.13;;;5.90;99.90;;;;;;5049022;28;20237;-70
2022/04/02 00:17:33;;;;;;;7.23;4.67;;;5.90;99.90;;;;;;5050036;28;20213;-70
2022/04/02 00:20:00;;;;;;;7.67;4.80;;;5.90;99.90;;;;;;5049054;28;20205;-70
2022/04/02 00:22:27;;;;;;;7.07;4.80;;;6.00;99.90;;;;;;5049182;28;20247;-70
2022/04/02 00:24:53;;;;;;;7.43;5.23;;;6.00;99.90;;;;;;5049308;28;20690;-70
2022/04/02 00:27:20;;;;;;;6.77;4.63;;;6.00;99.90;;;;;;5049527;28;20287;-71
2022/04/02 00:29:47;;;;;;;7.90;5.10;;;6.00;99.90;;;;;;5049284;28;20249;-70
2022/04/02 00:32:14;;;;;;;7.47;4.87;;;6.00;99.90;;;;;;5048914;28;20306;-70
2022/04/02 00:34:42;;;;;;;8.00;5.33;;;6.00;99.90;;;;;;5049145;28;20686;-70
2022/04/02 00:37:09;;;;;;;8.47;5.17;;;5.90;99.90;;;;;;5048723;28;20292;-70
2022/04/02 00:39:36;;;;;;;8.27;4.87;;;5.90;99.90;;;;;;5049425;28;20278;-72
2022/04/02 00:42:04;;;;;;;7.00;4.90;;;5.90;99.90;;;;;;5048986;28;20247;-70
2022/04/02 00:44:31;;;;;;;7.50;5.07;;;5.90;99.90;;;;;;5049098;28;20679;-70
2022/04/02 00:46:58;;;;;;;8.43;5.00;;;6.00;99.90;;;;;;5049138;28;20319;-71
2022/04/02 00:49:25;;;;;;;6.57;5.03;;;6.00;99.90;;;;;;5049452;28;20326;-71
2022/04/02 00:51:53;;;;;;;8.57;5.40;;;6.00;99.90;;;;;;5049006;28;20241;-70
2022/04/02 00:54:21;;;;;;;7.07;5.20;;;6.00;99.90;;;;;;5048820;28;20223;-70
2022/04/02 00:56:48;;;;;;;9.57;5.43;;;6.00;99.90;;;;;;5049334;28;20632;-70
2022/04/02 00:59:16;;;;;;;8.07;5.47;;;5.90;99.90;;;;;;5048503;28;20313;-70
2022/04/02 01:01:45;;;;;;;7.27;5.13;;;5.80;99.90;;;;;;5049541;28;20240;-71
2022/04/02 01:04:12;;;;;;;8.87;5.13;;;5.80;99.90;;;;;;5049116;28;20205;-71
2022/04/02 01:06:42;;;;;;;7.67;5.13;;;5.80;99.90;;;;;;5048738;28;20595;-70
2022/04/02 01:09:10;;;;;;;7.73;5.07;;;5.80;99.90;;;;;;5049229;28;20208;-70
2022/04/02 01:11:39;;;;;;;7.60;4.80;;;5.80;99.90;;;;;;5048744;28;20459;-71
2022/04/02 01:14:06;;;;;;;8.37;5.43;;;5.80;99.90;;;;;;5048622;28;20240;-70
2022/04/02 01:16:33;;;;;;;8.57;5.60;;;5.80;99.90;;;;;;5048719;28;20252;-71
2022/04/02 01:19:01;;;;;;;8.70;5.53;;;5.70;99.90;;;;;;5048226;28;20221;-71
2022/04/02 01:21:28;;;;;;;7.60;5.33;;;5.70;99.90;;;;;;5048173;28;20217;-69
2022/04/02 01:23:57;;;;;;;8.70;5.30;;;5.60;99.90;;;;;;5048092;28;20257;-71
2022/04/02 01:26:25;;;;;;;8.20;4.83;;;5.60;99.90;;;;;;5048304;28;20241;-71
2022/04/02 01:28:55;;;;;;;7.10;4.83;;;5.60;99.90;;;;;;5051804;28;20244;-70
2022/04/02 01:31:23;;;;;;;8.03;5.10;;;5.60;99.90;;;;;;5052111;28;20209;-69
2022/04/02 01:33:50;;;;;;;9.33;5.37;;;5.50;99.90;;;;;;5051754;28;20390;-71
2022/04/02 01:36:19;;;;;;;7.63;5.03;;;5.60;99.90;;;;;;5051477;28;20292;-69
2022/04/02 01:38:46;;;;;;;6.70;4.30;;;5.60;99.90;;;;;;5051262;28;20288;-70
2022/04/02 01:41:14;;;;;;;7.67;4.40;;;5.60;99.90;;;;;;5051559;28;20237;-71
2022/04/02 01:43:42;;;;;;;5.63;4.20;;;5.60;99.90;;;;;;5051733;28;20205;-71
2022/04/02 01:46:10;;;;;;;6.73;3.90;;;5.60;99.90;;;;;;5051741;28;20244;-71
2022/04/02 01:48:38;;;;;;;7.53;4.20;;;5.60;99.90;;;;;;5051950;28;20209;-70
2022/04/02 01:51:05;;;;;;;6.80;4.20;;;5.60;99.90;;;;;;5051479;28;20237;-71
2022/04/02 01:53:33;;;;;;;6.37;3.80;;;5.60;99.90;;;;;;5051257;28;20248;-71
2022/04/02 01:56:00;;;;;;;5.57;3.90;;;5.60;99.90;;;;;;5051556;28;20284;-71
2022/04/02 01:58:28;;;;;;;6.10;3.70;;;5.60;99.90;;;;;;5051460;28;20244;-70
2022/04/02 02:00:56;;;;;;;5.13;3.70;;;5.50;99.90;;;;;;5051129;28;20299;-70
2022/04/02 02:03:23;;;;;;;4.80;3.60;;;5.50;99.90;;;;;;5051471;28;20237;-71
2022/04/02 02:05:50;;;;;;;4.57;3.60;;;5.50;99.90;;;;;;5051131;28;20241;-70
2022/04/02 02:08:17;;;;;;;5.13;3.50;;;5.50;99.90;;;;;;5051274;28;20292;-70
2022/04/02 02:10:44;;;;;;;4.40;3.30;;;5.50;99.90;;;;;;5051221;28;20587;-71
2022/04/02 02:13:11;;;;;;;3.80;3.10;;;5.50;99.90;;;;;;5051304;28;20232;-70
2022/04/02 02:15:39;;;;;;;5.13;3.13;;;5.50;99.90;;;;;;5050813;28;20305;-70
2022/04/02 02:18:07;;;;;;;3.53;2.80;;;5.50;99.90;;;;;;5051019;28;20205;-70
2022/04/02 02:20:34;;;;;;;3.60;3.07;;;5.50;99.90;;;;;;5051258;28;20695;-70
2022/04/02 02:23:00;;;;;;;4.60;3.30;;;5.50;99.90;;;;;;5050768;28;20257;-70
2022/04/02 02:25:27;;;;;;;4.90;3.33;;;5.50;99.90;;;;;;5050865;28;20252;-71
2022/04/02 02:27:54;;;;;;;3.93;3.00;;;5.50;99.90;;;;;;5050710;28;20240;-71
2022/04/02 02:30:22;;;;;;;4.27;2.80;;;5.40;99.90;;;;;;5050837;28;20248;-70
2022/04/02 02:35:48;;;;;;;4.13;2.87;;;5.40;99.90;;;;;;5050992;28;20675;-71
2022/04/02 02:35:51;;;;;;;3.90;2.80;;;5.40;99.90;;;;;;5050608;28;20186;-70
2022/04/02 02:38:20;;;;;;;3.87;2.83;;;5.40;99.90;;;;;;5050297;28;20241;-70
2022/04/02 02:40:49;;;;;;;3.47;2.90;;;5.40;99.90;;;;;;5050774;28;20246;-70
2022/04/02 02:43:16;;;;;;;3.70;3.07;;;5.40;99.90;;;;;;5050930;28;20205;-71
2022/04/02 02:45:44;;;;;;;4.30;3.07;;;5.40;99.90;;;;;;5050593;28;20237;-70
2022/04/02 02:48:13;;;;;;;5.20;3.20;;;5.40;99.90;;;;;;5051203;28;20288;-70
2022/04/02 02:50:42;;;;;;;4.57;3.17;;;5.40;99.90;;;;;;5050610;28;20229;-70
2022/04/02 02:53:09;;;;;;;4.57;3.37;;;5.40;99.90;;;;;;5050774;28;20458;-70
2022/04/02 02:55:37;;;;;;;4.83;3.30;;;5.40;99.90;;;;;;5050415;28;20322;-70
2022/04/02 02:58:04;;;;;;;5.03;3.20;;;5.40;99.90;;;;;;5050488;28;20240;-71
2022/04/02 03:00:31;;;;;;;3.83;2.90;;;5.40;99.90;;;;;;5050365;28;20602;-70
2022/04/02 03:02:58;;;;;;;3.53;2.93;;;5.50;99.90;;;;;;5050671;28;20675;-70
2022/04/02 03:05:26;;;;;;;4.10;3.00;;;5.50;99.90;;;;;;5050248;28;20205;-71
2022/04/02 03:07:53;;;;;;;4.70;2.93;;;5.50;99.90;;;;;;5050473;28;20297;-71
2022/04/02 03:10:22;;;;;;;3.77;2.60;;;5.50;99.90;;;;;;5050392;28;20244;-72
2022/04/02 03:12:51;;;;;;;3.97;2.87;;;5.50;99.90;;;;;;5050352;28;20719;-70
2022/04/02 03:15:19;;;;;;;3.30;2.30;;;5.40;99.90;;;;;;5050618;28;20205;-70
2022/04/02 03:17:46;;;;;;;2.57;2.23;;;5.50;99.90;;;;;;5050152;28;20216;-70
2022/04/02 03:20:14;;;;;;;3.57;2.57;;;5.40;99.90;;;;;;5050121;28;20733;-71
2022/04/02 03:22:45;;;;;;;6.10;2.33;;;5.50;99.90;;;;;;5050323;28;20221;-70
2022/04/02 03:25:13;;;;;;;2.83;2.40;;;5.50;99.90;;;;;;5050174;28;20194;-70
2022/04/02 03:27:43;;;;;;;3.70;2.60;;;5.50;99.90;;;;;;5050089;28;20296;-72
2022/04/02 03:30:11;;;;;;;3.50;2.80;;;5.50;99.90;;;;;;5050375;28;20197;-71
2022/04/02 03:32:39;;;;;;;4.67;2.97;;;5.40;99.90;;;;;;5050055;28;20425;-71
2022/04/02 03:35:08;;;;;;;3.87;2.90;;;5.40;99.90;;;;;;5049937;28;20296;-70
2022/04/02 03:37:37;;;;;;;3.30;2.70;;;5.40;99.90;;;;;;5050214;28;20316;-71
2022/04/02 03:40:08;;;;;;;3.03;2.70;;;5.40;99.90;;;;;;5050009;28;20735;-71
2022/04/02 03:42:35;;;;;;;3.57;2.80;;;5.40;99.90;;;;;;5050072;28;20204;-70
2022/04/02 03:45:02;;;;;;;3.90;2.97;;;5.30;99.90;;;;;;5050057;28;20637;-71
2022/04/02 03:47:29;;;;;;;4.70;3.10;;;5.30;99.90;;;;;;5049368;28;20209;-72
2022/04/02 03:49:56;;;;;;;3.80;2.93;;;5.30;99.90;;;;;;5048948;28;20730;-71
2022/04/02 03:52:23;;;;;;;4.10;2.90;;;5.30;99.90;;;;;;5049966;28;20728;-71
2022/04/02 03:54:50;;;;;;;4.40;3.03;;;5.30;99.90;;;;;;5049425;28;20250;-70
2022/04/02 03:57:18;;;;;;;4.20;3.00;;;5.30;99.90;;;;;;5049841;28;20244;-71
2022/04/02 03:59:46;;;;;;;4.93;3.00;;;5.30;99.90;;;;;;5049242;28;20261;-71
2022/04/02 04:02:13;;;;;;;4.47;3.07;;;5.30;99.90;;;;;;5049489;28;20212;-71
2022/04/02 04:04:40;;;;;;;5.37;2.93;;;5.30;99.90;;;;;;5049575;28;20237;-71
2022/04/02 04:07:08;;;;;;;4.67;3.20;;;5.30;99.90;;;;;;5049460;28;20241;-71
2022/04/02 04:09:36;;;;;;;4.53;3.17;;;5.30;99.90;;;;;;5049529;28;20630;-71
2022/04/02 04:12:03;;;;;;;5.77;3.40;;;5.30;99.90;;;;;;5049625;28;20263;-71
2022/04/02 04:14:32;;;;;;;4.77;3.20;;;5.30;99.90;;;;;;5048903;28;20292;-70
2022/04/02 04:16:59;;;;;;;4.70;3.40;;;5.20;99.90;;;;;;5049516;28;20702;-70
2022/04/02 04:19:26;;;;;;;6.13;3.27;;;5.20;99.90;;;;;;5049143;28;20782;-71
2022/04/02 04:21:53;;;;;;;4.53;3.40;;;5.20;99.90;;;;;;5049482;28;20209;-71
2022/04/02 04:24:20;;;;;;;3.83;3.03;;;5.20;99.90;;;;;;5049125;28;20221;-71
2022/04/02 04:26:47;;;;;;;4.77;3.13;;;5.20;99.90;;;;;;5049168;28;20300;-70
2022/04/02 04:29:14;;;;;;;6.20;3.13;;;5.20;99.90;;;;;;5049137;28;20252;-71
2022/04/02 04:31:42;;;;;;;5.53;3.40;;;5.20;99.90;;;;;;5048969;28;20248;-71
2022/04/02 04:34:09;;;;;;;3.77;3.30;;;5.20;99.90;;;;;;5049321;28;20613;-70
2022/04/02 04:36:36;;;;;;;7.63;3.57;;;5.30;99.90;;;;;;5049352;28;20240;-71
2022/04/02 04:39:04;;;;;;;5.63;3.33;;;5.30;99.90;;;;;;5048617;28;20260;-70
2022/04/02 04:41:31;;;;;;;5.97;3.57;;;5.20;99.90;;;;;;5048578;28;20237;-71
2022/04/02 04:43:58;;;;;;;8.40;3.50;;;5.30;99.90;;;;;;5048764;28;20248;-71
2022/04/02 04:46:25;;;;;;;9.03;3.57;;;5.30;99.90;;;;;;5048755;28;20244;-71
2022/04/02 04:48:53;;;;;;;9.40;3.70;;;5.20;99.90;;;;;;5049127;28;20670;-72
2022/04/02 04:51:23;;;;;;;9.53;3.70;;;5.20;99.90;;;;;;5048404;28;20240;-71
2022/04/02 04:53:50;;;;;;;7.77;4.03;;;5.20;99.90;;;;;;5049058;28;20218;-71
2022/04/02 04:56:17;;;;;;;7.13;3.70;;;5.20;99.90;;;;;;5048786;28;20656;-72
2022/04/02 04:58:44;;;;;;;9.37;3.70;;;5.30;99.90;;;;;;5048735;28;20650;-70
2022/04/02 05:01:12;;;;;;;11.60;3.77;;;5.30;99.90;;;;;;5049877;28;20311;-70
2022/04/02 05:03:39;;;;;;;6.97;3.87;;;5.30;99.90;;;;;;5052225;28;20216;-71
2022/04/02 05:06:10;;;;;;;8.00;4.00;;;5.30;99.90;;;;;;5052413;28;20201;-70
2022/04/02 05:09:13;;;;;;;9.27;4.13;;;5.30;99.90;;;;;;5051969;28;20229;-71
2022/04/02 05:11:41;;;;;;;9.37;3.90;;;5.40;99.90;;;;;;5051980;28;20277;-71
2022/04/02 05:14:08;;;;;;;8.67;4.90;;;5.40;99.90;;;;;;5052290;28;20296;-71
2022/04/02 05:16:35;;;;;;;6.90;4.27;;;5.40;99.90;;;;;;5051868;28;20250;-71
2022/04/02 05:19:02;;;;;;;12.87;5.03;;;5.40;99.90;;;;;;5052219;28;20573;-71
2022/04/02 05:21:30;;;;;;;9.80;4.97;;;5.30;99.90;;;;;;5051569;28;20282;-72
2022/04/02 05:23:57;;;;;;;8.80;4.90;;;5.30;99.90;;;;;;5051953;28;20698;-71
2022/04/02 05:26:24;;;;;;;9.23;4.60;;;5.40;99.90;;;;;;5052390;28;20593;-70
2022/04/02 05:28:51;;;;;;;13.33;5.13;;;5.40;99.90;;;;;;5052043;28;20662;-70
2022/04/02 05:31:18;;;;;;;13.83;5.10;;;5.40;99.90;;;;;;5051827;28;20202;-71
2022/04/02 05:33:45;;;;;;;15.03;4.77;;;5.50;99.90;;;;;;5052042;28;20619;-70
2022/04/02 05:36:12;;;;;;;13.47;5.33;;;5.40;99.90;;;;;;5051805;28;20719;-70
2022/04/02 05:38:40;;;;;;;13.67;5.77;;;5.40;99.90;;;;;;5052236;28;20698;-70
2022/04/02 05:41:08;;;;;;;15.47;5.27;;;5.30;99.90;;;;;;5052225;28;20222;-70
2022/04/02 05:43:35;;;;;;;13.30;5.00;;;5.30;99.90;;;;;;5052287;28;20209;-72
2022/04/02 05:46:02;;;;;;;12.73;4.97;;;5.30;99.90;;;;;;5051939;28;20209;-70
2022/04/02 05:48:31;;;;;;;11.57;4.90;;;5.20;99.90;;;;;;5051563;28;20213;-71
2022/04/02 05:50:58;;;;;;;14.67;5.73;;;5.30;99.90;;;;;;5051859;28;20205;-71
2022/04/02 05:53:25;;;;;;;11.93;5.43;;;5.30;99.90;;;;;;5052166;28;20262;-71
2022/04/02 05:55:54;;;;;;;13.20;5.60;;;5.30;99.90;;;;;;5051765;28;20205;-71
2022/04/02 05:58:21;;;;;;;12.77;5.47;;;5.40;99.90;;;;;;5051453;28;20217;-71
2022/04/02 06:00:48;;;;;;;13.83;5.17;;;5.30;99.90;;;;;;5051492;28;20296;-71
2022/04/02 06:03:16;;;;;;;12.27;5.40;;;5.30;99.90;;;;;;5051334;28;20583;-73
2022/04/02 06:05:43;;;;;;;9.93;4.83;;;5.30;99.90;;;;;;5051298;28;20301;-71
2022/04/02 06:08:11;;;;;;;12.40;5.13;;;5.30;99.90;;;;;;5051351;28;20209;-71
2022/04/02 06:10:38;;;;;;;13.87;5.47;;;5.30;99.90;;;;;;5051214;28;20671;-71
2022/04/02 06:13:07;;;;;;;13.30;5.33;;;5.30;99.90;;;;;;5050530;28;20205;-71
2022/04/02 06:15:35;;;;;;;12.53;4.90;;;5.30;99.90;;;;;;5051479;28;20288;-71
2022/04/02 06:18:03;;;;;;;13.57;5.30;;;5.20;99.90;;;;;;5051174;28;20738;-70
2022/04/02 06:20:30;;;;;;;14.40;5.27;;;5.20;99.90;;;;;;5051068;28;20286;-70
2022/04/02 06:22:57;;;;;;;12.77;5.43;;;5.10;99.90;;;;;;5050974;28;20274;-70
2022/04/02 06:25:24;;;;;;;15.17;5.90;;;5.10;99.90;;;;;;5050821;28;20244;-71
2022/04/02 06:27:52;;;;;;;13.33;5.60;;;5.00;99.90;;;;;;5051495;28;20625;-71
2022/04/02 06:30:22;;;;;;;13.60;5.87;;;5.00;99.90;;;;;;5050592;28;20205;-70
2022/04/02 06:32:49;;;;;;;14.03;6.07;;;5.10;99.90;;;;;;5050948;28;20560;-71
2022/04/02 06:35:18;;;;;;;23.90;7.20;;;5.10;99.90;;;;;;5050682;28;20209;-71
2022/04/02 06:37:45;;;;;;;19.10;7.40;;;5.20;99.90;;;;;;5050713;28;20279;-71
2022/04/02 06:40:12;;;;;;;19.17;8.27;;;5.20;99.90;;;;;;5050801;28;20228;-70
2022/04/02 06:42:39;;;;;;;15.60;7.70;;;5.20;99.90;;;;;;5050613;28;20262;-71
2022/04/02 06:45:07;;;;;;;18.77;6.77;;;5.20;99.90;;;;;;5050758;28;20201;-71
2022/04/02 06:47:36;;;;;;;20.17;5.70;;;5.20;99.90;;;;;;5050668;28;20659;-71
2022/04/02 06:50:04;;;;;;;14.27;5.27;;;5.20;99.90;;;;;;5050610;28;20707;-70
2022/04/02 06:52:32;;;;;;;16.23;5.13;;;5.20;99.90;;;;;;5050448;28;20615;-71
2022/04/02 06:54:59;;;;;;;18.73;5.50;;;5.20;99.90;;;;;;5050232;28;20266;-71
2022/04/02 06:57:26;;;;;;;23.37;5.97;;;5.20;99.90;;;;;;5050778;28;20206;-70
2022/04/02 06:59:53;;;;;;;9.90;5.17;;;5.20;99.90;;;;;;5050322;28;20205;-71
2022/04/02 07:02:21;;;;;;;12.03;5.07;;;5.20;99.90;;;;;;5050581;28;20632;-71
2022/04/02 07:04:49;;;;;;;17.33;4.90;;;5.20;99.90;;;;;;5050694;28;20208;-71
2022/04/02 07:07:16;;;;;;;17.93;5.20;;;5.20;99.90;;;;;;5049972;28;20258;-70
2022/04/02 07:09:43;;;;;;;16.67;5.43;;;5.10;99.90;;;;;;5050264;28;20269;-70
2022/04/02 07:12:11;;;;;;;14.80;4.50;;;5.10;99.90;;;;;;5050413;28;20547;-71
2022/04/02 07:14:38;;;;;;;11.37;5.03;;;5.10;99.90;;;;;;5050111;28;20209;-70
2022/04/02 07:17:06;;;;;;;10.10;5.10;;;5.10;99.90;;;;;;5050388;28;20738;-71
2022/04/02 07:19:34;;;;;;;11.20;4.57;;;5.20;99.90;;;;;;5050254;28;20206;-71
2022/04/02 07:22:03;;;;;;;11.00;4.47;;;5.20;99.90;;;;;;5049771;28;20321;-71
2022/04/02 07:24:32;;;;;;;10.13;4.83;;;5.20;99.90;;;;;;5050069;28;20214;-71
2022/04/02 07:27:00;;;;;;;8.83;4.40;;;5.20;99.90;;;;;;5049953;28;20258;-71
2022/04/02 07:29:27;;;;;;;10.33;4.93;;;5.20;99.90;;;;;;5050028;28;20254;-71
2022/04/02 07:31:54;;;;;;;18.80;6.17;;;5.20;99.90;;;;;;5049968;28;20197;-70
2022/04/02 07:34:21;;;;;;;19.83;6.97;;;5.20;99.90;;;;;;5049700;28;20210;-70
2022/04/02 07:36:58;;;;;;;27.10;8.80;;;5.10;99.90;;;;;;5049822;28;20257;-71
2022/04/02 07:39:34;;;;;;;29.93;10.53;;;5.10;99.90;;;;;;5050058;28;20236;-71
2022/04/02 07:42:08;;;;;;;65.57;19.50;;;5.10;99.90;;;;;;5049823;28;20266;-71
2022/04/02 07:44:48;;;;;;;71.50;22.10;;;5.10;99.90;;;;;;5050131;28;20268;-70
2022/04/02 07:47:15;;;;;;;80.43;21.40;;;5.10;99.90;;;;;;5049577;28;20246;-70
2022/04/02 07:49:47;;;;;;;55.37;17.67;;;5.10;99.90;;;;;;5049845;28;20635;-70
2022/04/02 07:52:15;;;;;;;46.20;14.10;;;5.00;99.90;;;;;;5049639;28;20186;-68
2022/04/02 07:54:45;;;;;;;41.30;12.40;;;5.10;99.90;;;;;;5049802;28;20296;-68
2022/04/02 07:57:15;;;;;;;31.80;11.53;;;5.00;99.90;;;;;;5049785;28;20257;-67
2022/04/02 07:59:44;;;;;;;28.30;11.43;;;5.00;99.90;;;;;;5049588;28;20270;-68
2022/04/02 08:04:54;;;;;;;29.90;8.67;;;5.10;99.90;;;;;;5049015;28;20205;-68
2022/04/02 08:07:21;;;;;;;44.13;7.90;;;5.00;99.90;;;;;;5049542;28;20201;-68
2022/04/02 08:09:52;;;;;;;30.10;6.43;;;5.00;99.90;;;;;;5049364;28;20261;-68
2022/04/02 08:12:20;;;;;;;9.60;5.53;;;5.00;99.90;;;;;;5049482;28;20623;-68
2022/04/02 08:14:48;;;;;;;12.80;5.80;;;5.00;99.90;;;;;;5049481;28;20258;-69
2022/04/02 08:17:15;;;;;;;13.03;5.57;;;5.00;99.90;;;;;;5049151;28;20209;-68
2022/04/02 08:19:43;;;;;;;9.03;5.03;;;5.00;99.90;;;;;;5048980;28;20213;-68
2022/04/02 08:22:10;;;;;;;9.63;4.47;;;5.00;99.90;;;;;;5048940;28;20565;-68
2022/04/02 08:24:36;;;;;;;11.70;4.97;;;5.00;99.90;;;;;;5049121;28;20593;-69
2022/04/02 08:27:11;;;;;;;10.67;5.60;;;5.00;99.90;;;;;;5049072;28;20611;-68
2022/04/02 08:29:53;;;;;;;14.10;6.07;;;5.00;99.90;;;;;;5049200;28;20239;-67
2022/04/02 08:32:29;;;;;;;11.43;5.53;;;4.90;99.90;;;;;;5049172;28;20647;-68
2022/04/02 08:35:04;;;;;;;17.03;6.77;;;4.90;99.90;;;;;;5048647;28;20285;-69
2022/04/02 08:37:45;;;;;;;12.80;7.17;;;4.90;99.90;;;;;;5048304;28;20243;-68
2022/04/02 08:40:39;;;;;;;18.70;7.93;;;5.00;99.90;;;;;;5049181;28;20639;-69
2022/04/02 08:43:42;;;;;;;19.13;7.47;;;5.00;99.90;;;;;;5049009;28;20586;-67
2022/04/02 08:46:17;;;;;;;18.67;8.27;;;5.00;99.90;;;;;;5048804;28;20269;-69
2022/04/02 08:48:58;;;;;;;18.10;9.33;;;5.10;99.90;;;;;;5048733;28;20228;-70
2022/04/02 08:51:41;;;;;;;24.73;11.70;;;5.10;99.90;;;;;;5049058;28;20188;-68
2022/04/02 08:54:25;;;;;;;19.30;10.57;;;5.10;99.90;;;;;;5048493;28;20201;-68
2022/04/02 08:56:58;;;;;;;20.33;9.47;;;5.10;99.90;;;;;;5048887;28;20665;-67
2022/04/02 08:59:38;;;;;;;21.60;9.07;;;5.10;99.90;;;;;;5048615;28;20193;-69
2022/04/02 09:02:34;;;;;;;22.47;8.13;;;5.20;99.90;;;;;;5048373;28;20216;-68
2022/04/02 09:05:22;;;;;;;16.57;7.93;;;5.20;99.90;;;;;;5036060;28;20217;-68
2022/04/02 09:08:16;;;;;;;15.90;7.73;;;5.20;99.90;;;;;;5048533;28;20628;-71
2022/04/02 09:11:19;;;;;;;20.93;10.40;;;5.20;99.90;;;;;;5048355;28;20578;-69
2022/04/02 09:14:01;;;;;;;22.33;10.03;;;5.10;99.90;;;;;;5048723;28;20217;-68
2022/04/02 09:16:36;;;;;;;14.33;8.00;;;5.10;99.90;;;;;;5048401;28;20653;-69
2022/04/02 09:19:14;;;;;;;17.73;7.50;;;5.20;99.90;;;;;;5048115;28;20197;-68
2022/04/02 09:22:07;;;;;;;14.87;7.13;;;5.20;99.90;;;;;;5048439;28;20209;-69
2022/04/02 09:25:07;;;;;;;13.07;5.80;;;5.20;99.90;;;;;;5048541;28;20194;-67
2022/04/02 09:28:07;;;;;;;12.07;5.27;;;5.20;99.90;;;;;;5048521;28;20594;-67
2022/04/02 09:31:09;;;;;;;10.07;5.30;;;5.20;99.90;;;;;;5048759;28;20540;-68
2022/04/02 09:34:02;;;;;;;13.33;6.50;;;5.20;99.90;;;;;;5048337;28;20206;-68
2022/04/02 09:36:31;;;;;;;13.87;6.80;;;5.20;99.90;;;;;;5048174;28;20190;-70
2022/04/02 09:39:07;;;;;;;13.03;6.57;;;5.20;99.90;;;;;;5047659;28;20272;-68
2022/04/02 09:42:00;;;;;;;13.43;6.20;;;5.20;99.90;;;;;;5048319;28;20264;-67
2022/04/02 09:44:49;;;;;;;16.57;7.07;;;5.20;99.90;;;;;;5048411;28;20228;-69
2022/04/02 09:47:21;;;;;;;13.83;5.73;;;5.20;99.90;;;;;;5048010;28;20197;-68
2022/04/02 09:50:08;;;;;;;14.13;6.43;;;5.30;99.90;;;;;;5051600;28;20194;-68
2022/04/02 09:52:38;;;;;;;11.30;6.50;;;5.30;99.90;;;;;;5051804;28;20217;-70
2022/04/02 09:55:08;;;;;;;11.13;5.83;;;5.30;99.90;;;;;;5051399;28;20194;-68
2022/04/02 09:58:01;;;;;;;12.53;5.80;;;5.30;99.90;;;;;;5051291;28;20189;-69
2022/04/02 10:00:38;;;;;;;9.60;5.10;;;5.30;99.90;;;;;;5017764;28;20202;-69
2022/04/02 10:03:09;;;;;;;8.40;4.63;;;5.40;99.90;;;;;;5051101;28;20241;-68
2022/04/02 10:06:04;;;;;;;8.40;4.00;;;5.40;99.90;;;;;;5050929;28;20209;-69
2022/04/02 10:08:41;;;;;;;6.67;3.87;;;5.30;99.90;;;;;;5051110;28;20270;-68
2022/04/02 10:11:09;;;;;;;7.17;4.07;;;5.40;99.90;;;;;;5051143;28;20181;-67
2022/04/02 10:13:36;;;;;;;7.03;4.10;;;5.40;99.90;;;;;;5051161;28;20566;-67
2022/04/02 10:16:05;;;;;;;8.33;4.13;;;5.40;99.90;;;;;;5051390;28;20643;-69
2022/04/02 10:18:36;;;;;;;6.20;3.70;;;5.40;99.90;;;;;;5050777;28;20205;-68
2022/04/02 10:21:06;;;;;;;8.17;3.97;;;5.40;99.90;;;;;;5051042;28;20196;-69
2022/04/02 10:23:36;;;;;;;8.37;3.90;;;5.50;99.90;;;;;;5051039;28;20225;-68
2022/04/02 10:26:13;;;;;;;11.33;6.60;;;5.50;99.90;;;;;;5051282;28;20214;-69
2022/04/02 10:28:52;;;;;;;7.83;4.10;;;5.40;99.90;;;;;;5050946;28;20236;-69
2022/04/02 10:31:50;;;;;;;8.50;4.30;;;5.40;99.90;;;;;;5051435;28;20255;-69
2022/04/02 10:34:29;;;;;;;7.30;4.03;;;5.40;99.90;;;;;;5050528;28;20700;-68
2022/04/02 10:37:09;;;;;;;6.47;3.87;;;5.40;99.90;;;;;;5050606;28;20190;-69
2022/04/02 10:39:40;;;;;;;7.00;3.80;;;5.40;99.90;;;;;;5050747;28;20243;-67
2022/04/02 10:42:11;;;;;;;6.47;3.83;;;5.40;99.90;;;;;;5050422;28;20296;-68
2022/04/02 10:44:46;;;;;;;9.07;3.80;;;5.40;99.90;;;;;;5050597;28;20225;-68
2022/04/02 10:47:16;;;;;;;6.77;3.30;;;5.50;99.90;;;;;;5050615;28;20374;-68
2022/04/02 10:49:46;;;;;;;5.90;3.30;;;5.40;99.90;;;;;;5050458;28;20209;-69
2022/04/02 10:52:17;;;;;;;6.00;3.10;;;5.30;99.90;;;;;;5050429;28;20224;-67
2022/04/02 10:54:49;;;;;;;7.03;3.30;;;5.40;99.90;;;;;;5050586;28;20231;-69
2022/04/02 10:57:18;;;;;;;5.87;2.73;;;5.40;99.90;;;;;;5050583;28;20622;-67
2022/04/02 10:59:47;;;;;;;6.93;3.30;;;5.50;99.90;;;;;;5050206;28;20644;-68
2022/04/02 11:02:22;;;;;;;5.50;2.60;;;5.50;99.90;;;;;;5050389;28;20320;-69
2022/04/02 11:05:00;;;;;;;3.47;2.40;;;5.40;99.90;;;;;;5050461;28;20219;-68
2022/04/02 11:07:29;;;;;;;3.40;2.23;;;5.50;99.90;;;;;;5050388;28;20285;-69
2022/04/02 11:09:59;;;;;;;4.43;2.73;;;5.50;99.90;;;;;;5050273;28;20288;-68
2022/04/02 11:12:30;;;;;;;3.63;2.20;;;5.60;99.90;;;;;;5050246;28;20207;-68
2022/04/02 11:15:09;;;;;;;4.83;2.67;;;5.60;99.90;;;;;;5050573;28;20281;-68
2022/04/02 11:17:37;;;;;;;4.53;2.63;;;5.60;99.90;;;;;;5049897;28;20192;-68
2022/04/02 11:20:07;;;;;;;4.93;3.03;;;5.60;99.90;;;;;;5050492;28;20236;-67
2022/04/02 11:23:04;;;;;;;3.90;2.80;;;5.60;99.90;;;;;;5049690;28;20233;-67
2022/04/02 11:25:35;;;;;;;5.00;2.90;;;5.60;99.90;;;;;;5049812;28;20190;-69
2022/04/02 11:28:11;;;;;;;5.63;3.20;;;5.60;99.90;;;;;;5050065;28;20190;-69
2022/04/02 11:30:40;;;;;;;4.03;2.90;;;5.60;99.90;;;;;;5049971;28;20194;-68
2022/04/02 11:33:08;;;;;;;5.40;3.40;;;5.60;99.90;;;;;;5050176;28;20659;-68
2022/04/02 11:35:39;;;;;;;4.73;3.20;;;5.60;99.90;;;;;;5050142;28;20647;-68
2022/04/02 11:38:23;;;;;;;5.27;3.40;;;5.60;99.90;;;;;;5049900;28;20244;-69
2022/04/02 11:41:04;;;;;;;5.93;3.47;;;5.60;99.90;;;;;;5050062;28;20631;-69
2022/04/02 11:43:32;;;;;;;4.90;3.40;;;5.60;99.90;;;;;;5049546;28;20248;-67
2022/04/02 11:46:00;;;;;;;6.13;3.40;;;5.60;99.90;;;;;;5049856;28;20209;-68
2022/04/02 11:48:32;;;;;;;5.70;3.63;;;5.70;99.90;;;;;;5049659;28;20240;-69
2022/04/02 11:51:11;;;;;;;5.87;3.90;;;5.80;99.90;;;;;;5049474;28;20200;-68
2022/04/02 11:53:40;;;;;;;6.50;3.77;;;5.80;99.90;;;;;;5049268;28;20277;-69
2022/04/02 11:56:23;;;;;;;5.63;3.40;;;5.80;99.90;;;;;;5049229;28;20244;-68
2022/04/02 11:58:51;;;;;;;6.30;3.93;;;5.80;99.90;;;;;;5049752;28;20233;-69
2022/04/02 12:01:20;;;;;;;4.73;3.60;;;5.80;99.90;;;;;;5049611;28;20686;-69
2022/04/02 12:03:48;;;;;;;6.23;3.30;;;5.70;99.90;;;;;;5049631;28;20201;-68
2022/04/02 12:06:15;;;;;;;3.50;2.70;;;5.80;99.90;;;;;;5049550;28;20739;-68
2022/04/02 12:08:45;;;;;;;4.27;2.90;;;5.80;99.90;;;;;;5049399;28;20252;-68
2022/04/02 12:11:23;;;;;;;3.53;2.93;;;5.90;99.90;;;;;;5048646;28;20249;-68
2022/04/02 12:13:55;;;;;;;3.47;2.63;;;5.90;99.90;;;;;;5049503;28;20221;-68
2022/04/02 12:16:23;;;;;;;3.30;2.50;;;5.80;99.90;;;;;;5049217;28;20299;-68
2022/04/02 12:18:55;;;;;;;4.30;3.00;;;5.90;99.90;;;;;;5049371;28;20640;-67
2022/04/02 12:21:33;;;;;;;3.17;2.60;;;5.90;99.90;;;;;;5049228;28;20232;-68
2022/04/02 12:24:02;;;;;;;2.90;2.60;;;5.80;99.90;;;;;;5049102;28;20189;-68
2022/04/02 12:26:30;;;;;;;2.60;2.40;;;5.90;99.90;;;;;;5049155;28;20206;-68
2022/04/02 12:28:58;;;;;;;3.63;2.70;;;5.90;99.90;;;;;;5049248;28;20735;-67
2022/04/02 12:31:27;;;;;;;3.40;2.90;;;5.90;99.90;;;;;;5048881;28;20213;-68
2022/04/02 12:33:55;;;;;;;3.13;2.57;;;5.90;99.90;;;;;;5048966;28;20677;-68
2022/04/02 12:36:30;;;;;;;3.70;2.90;;;5.90;99.90;;;;;;5049100;28;20256;-68
2022/04/02 12:39:03;;;;;;;3.17;2.60;;;5.90;99.90;;;;;;5048685;28;20272;-68
2022/04/02 12:41:30;;;;;;;2.97;2.43;;;5.90;99.90;;;;;;5049073;28;20186;-69
2022/04/02 12:44:01;;;;;;;2.73;2.43;;;6.00;99.90;;;;;;5049009;28;20237;-67
2022/04/02 12:46:29;;;;;;;3.17;2.87;;;6.00;99.90;;;;;;5049130;28;20237;-69
2022/04/02 12:48:57;;;;;;;2.70;2.40;;;5.90;99.90;;;;;;5048999;28;20237;-68
2022/04/02 12:51:25;;;;;;;2.40;2.20;;;5.90;99.90;;;;;;5048795;28;20250;-67
2022/04/02 12:54:03;;;;;;;2.50;2.30;;;5.90;99.90;;;;;;5048891;28;20611;-69
2022/04/02 12:56:33;;;;;;;2.50;2.00;;;5.80;99.90;;;;;;5048807;28;20237;-68
2022/04/02 12:59:01;;;;;;;2.23;2.03;;;5.80;99.90;;;;;;5048867;28;20254;-69
2022/04/02 13:01:32;;;;;;;2.57;2.10;;;5.90;99.90;;;;;;5048383;28;20296;-68
2022/04/02 13:04:10;;;;;;;2.50;2.30;;;5.90;99.90;;;;;;5048539;28;20278;-68
2022/04/02 13:06:47;;;;;;;2.33;2.13;;;5.80;99.90;;;;;;5048758;28;20198;-68
2022/04/02 13:09:16;;;;;;;2.30;2.10;;;5.90;99.90;;;;;;5048272;28;20189;-69
2022/04/02 13:12:00;;;;;;;3.20;2.37;;;5.90;99.90;;;;;;5048413;28;20250;-68
2022/04/02 13:14:29;;;;;;;2.60;2.20;;;5.90;99.90;;;;;;5048129;28;20291;-68